Time;durP1;ratioP1;P1;durP2;ratioP2;P2;SDS_P1;SDS_P2;PMS_P1;PMS_P2;Temp;Humidity;BMP_temperature;BMP_pressure;BME280_temperature;BME280_humidity;BME280_pressure;Samples;Min_cycle;Max_cycle;Signal;HPM_P1;HPM_P2
2021/03/02 00:01:25;;;;;;;56.50;23.30;;;;;;;2.74;45.00;103062.47;4912526;28;96686;-72
2021/03/02 00:03:54;;;;;;;58.00;24.50;;;;;;;2.75;44.35;103066.91;4927476;28;96825;-72
2021/03/02 00:06:22;;;;;;;54.45;22.05;;;;;;;2.73;45.01;103063.25;4910731;28;100557;-72
2021/03/02 00:08:49;;;;;;;60.05;22.45;;;;;;;2.70;44.63;103063.91;4926718;28;97734;-72
2021/03/02 00:11:16;;;;;;;56.08;22.88;;;;;;;2.71;45.04;103064.81;4928463;28;97428;-72
2021/03/02 00:13:43;;;;;;;54.92;22.35;;;;;;;2.68;44.44;103064.53;4928228;28;97579;-72
2021/03/02 00:16:10;;;;;;;54.17;21.95;;;;;;;2.67;44.90;103058.38;4895076;28;100693;-71
2021/03/02 00:18:40;;;;;;;58.05;23.38;;;;;;;2.69;44.54;103061.13;4925744;28;100162;-71
2021/03/02 00:21:14;;;;;;;58.38;23.17;;;;;;;2.70;44.93;103065.59;4925877;28;96736;-72
2021/03/02 00:23:43;;;;;;;56.55;22.77;;;;;;;2.69;44.31;103061.13;4910332;28;98992;-72
2021/03/02 00:26:12;;;;;;;61.53;22.98;;;;;;;2.69;44.79;103066.41;4927923;28;97227;-72
2021/03/02 00:28:39;;;;;;;56.50;23.85;;;;;;;2.71;45.19;103070.09;4927843;28;97841;-71
2021/03/02 00:31:07;;;;;;;56.15;24.10;;;;;;;2.72;44.87;103067.59;4927673;28;97247;-71
2021/03/02 00:33:34;;;;;;;56.70;23.02;;;;;;;2.74;44.74;103057.19;4910765;28;97129;-72
2021/03/02 00:36:02;;;;;;;56.40;23.27;;;;;;;2.71;44.29;103059.56;4924897;28;96746;-71
2021/03/02 00:38:30;;;;;;;51.72;22.17;;;;;;;2.68;44.98;103060.22;4897026;28;99137;-71
2021/03/02 00:40:57;;;;;;;60.55;23.60;;;;;;;2.65;45.23;103061.66;4931684;28;97153;-72
2021/03/02 00:43:24;;;;;;;53.95;21.23;;;;;;;2.64;44.84;103062.41;4931431;28;97525;-72
2021/03/02 00:45:50;;;;;;;52.88;22.05;;;;;;;2.63;45.32;103063.22;4927969;28;100545;-72
2021/03/02 00:48:17;;;;;;;54.88;21.63;;;;;;;2.60;45.38;103058.59;4930171;28;99124;-72
2021/03/02 00:50:45;;;;;;;59.58;24.05;;;;;;;2.58;44.62;103059.25;4907328;28;96877;-72
2021/03/02 00:53:13;;;;;;;54.90;22.23;;;;;;;2.56;44.92;103061.75;4905045;28;96873;-71
2021/03/02 00:55:41;;;;;;;58.47;23.33;;;;;;;2.56;45.29;103064.38;4911661;28;97424;-72
2021/03/02 00:58:07;;;;;;;53.97;22.80;;;;;;;2.55;45.29;103052.00;4912815;28;100227;-72
2021/03/02 01:00:36;;;;;;;58.92;23.40;;;;;;;2.53;44.92;103057.94;4913706;28;97237;-72
2021/03/02 01:03:07;;;;;;;61.03;23.58;;;;;;;2.50;45.46;103052.38;4907878;28;97433;-72
2021/03/02 01:05:38;;;;;;;60.72;22.75;;;;;;;2.51;45.42;103056.88;4897330;28;101239;-72
2021/03/02 01:08:09;;;;;;;63.67;24.75;;;;;;;2.52;45.42;103056.06;4930569;28;97858;-71
2021/03/02 01:10:41;;;;;;;61.30;23.65;;;;;;;2.53;44.74;103052.69;4913119;28;97306;-71
2021/03/02 01:13:16;;;;;;;70.22;26.63;;;;;;;2.56;45.20;103055.56;4911149;28;96878;-71
2021/03/02 01:15:43;;;;;;;60.42;23.52;;;;;;;2.54;45.31;103044.94;4927666;28;99020;-71
2021/03/02 01:18:10;;;;;;;69.15;24.85;;;;;;;2.48;45.47;103051.31;4913382;28;98826;-71
2021/03/02 01:20:38;;;;;;;68.47;24.13;;;;;;;2.44;45.13;103049.22;4930497;28;96774;-71
2021/03/02 01:23:06;;;;;;;64.72;23.45;;;;;;;2.42;45.32;103049.06;4924872;28;96894;-71
2021/03/02 01:25:33;;;;;;;63.13;24.85;;;;;;;2.41;44.71;103048.94;4930146;28;98192;-71
2021/03/02 01:28:01;;;;;;;66.57;26.13;;;;;;;2.38;45.75;103038.16;4912782;28;99721;-71
2021/03/02 01:30:28;;;;;;;70.35;26.13;;;;;;;2.35;45.21;103036.16;4930754;28;96728;-71
2021/03/02 01:32:55;;;;;;;76.22;28.05;;;;;;;2.34;45.48;103036.03;4925044;28;97995;-71
2021/03/02 01:35:22;;;;;;;77.97;26.48;;;;;;;2.32;45.09;103032.34;4928152;28;99200;-71
2021/03/02 01:37:52;;;;;;;75.65;26.40;;;;;;;2.33;45.54;103036.84;4922349;28;98616;-72
2021/03/02 01:40:19;;;;;;;71.15;27.00;;;;;;;2.33;45.79;103039.47;4913697;28;97242;-71
2021/03/02 01:42:47;;;;;;;69.50;25.45;;;;;;;2.36;45.50;103031.84;4907202;28;96821;-72
2021/03/02 01:45:17;;;;;;;76.90;26.40;;;;;;;2.38;45.97;103038.16;4910492;28;98769;-71
2021/03/02 01:47:46;;;;;;;77.60;26.90;;;;;;;2.41;45.05;103035.78;4928955;28;99586;-70
2021/03/02 01:50:13;;;;;;;78.72;27.15;;;;;;;2.43;45.21;103028.97;4906727;28;96864;-70
2021/03/02 01:52:41;;;;;;;67.32;24.88;;;;;;;2.46;44.85;103034.50;4930781;28;96845;-71
2021/03/02 01:55:09;;;;;;;78.85;27.92;;;;;;;2.45;45.01;103030.03;4910011;28;97785;-72
2021/03/02 01:57:36;;;;;;;68.70;25.08;;;;;;;2.46;44.88;103037.13;4926219;28;97484;-71
2021/03/02 02:00:09;;;;;;;66.03;24.92;;;;;;;2.46;45.07;103039.75;4922839;28;96861;-71
2021/03/02 02:02:44;;;;;;;70.00;24.55;;;;;;;2.47;45.13;103041.59;4911838;28;96830;-72
2021/03/02 02:05:13;;;;;;;73.80;26.60;;;;;;;2.48;44.84;103043.44;4891728;28;96755;-71
2021/03/02 02:07:43;;;;;;;69.00;26.58;;;;;;;2.43;45.49;103043.03;4907955;28;97068;-71
2021/03/02 02:10:13;;;;;;;74.50;26.10;;;;;;;2.42;45.40;103042.91;4894630;28;97087;-70
2021/03/02 02:12:42;;;;;;;63.22;25.00;;;;;;;2.41;44.98;103034.09;4925132;28;96891;-70
2021/03/02 02:15:11;;;;;;;65.68;25.48;;;;;;;2.36;45.11;103038.03;4926961;28;98108;-71
2021/03/02 02:17:42;;;;;;;70.90;25.95;;;;;;;2.34;45.37;103036.97;4894334;28;98437;-71
2021/03/02 02:20:11;;;;;;;69.20;25.33;;;;;;;2.35;44.92;103044.03;4909329;28;96896;-70
2021/03/02 02:23:03;;;;;;;68.60;24.83;;;;;;;2.36;44.80;103047.59;4928518;28;97255;-71
2021/03/02 02:25:53;;;;;;;74.50;24.48;;;;;;;2.37;45.03;103041.56;4920514;28;97434;-71
2021/03/02 02:28:22;;;;;;;69.90;26.10;;;;;;;2.36;44.77;103031.84;4933031;28;97863;-71
2021/03/02 02:30:51;;;;;;;72.13;26.75;;;;;;;2.34;44.96;103028.16;4916028;28;96488;-71
2021/03/02 02:33:20;;;;;;;75.50;26.83;;;;;;;2.30;45.01;103029.59;4898615;28;97639;-71
2021/03/02 02:35:48;;;;;;;78.18;26.48;;;;;;;2.27;45.20;103025.75;4931995;28;97171;-71
2021/03/02 02:38:15;;;;;;;78.85;27.75;;;;;;;2.24;45.52;103036.91;4932584;28;97919;-71
2021/03/02 02:40:42;;;;;;;81.35;27.10;;;;;;;2.21;45.38;103026.13;4929826;28;96757;-70
2021/03/02 02:43:12;;;;;;;88.50;28.20;;;;;;;2.19;44.87;103039.13;4912824;28;97005;-70
2021/03/02 02:45:40;;;;;;;82.30;28.38;;;;;;;2.15;45.20;103034.38;4896711;28;98566;-71
2021/03/02 02:48:08;;;;;;;88.32;28.17;;;;;;;2.12;45.31;103031.47;4929310;28;98866;-71
2021/03/02 02:50:36;;;;;;;80.65;25.35;;;;;;;2.13;45.74;103028.06;4895914;28;96948;-71
2021/03/02 02:53:20;;;;;;;76.38;27.23;;;;;;;2.15;45.40;103036.06;4926439;28;96664;-72
2021/03/02 02:55:50;;;;;;;72.65;24.33;;;;;;;2.16;45.26;103032.69;4911420;28;101120;-71
2021/03/02 02:58:19;;;;;;;77.78;25.30;;;;;;;2.14;45.11;103032.50;4912028;28;99232;-72
2021/03/02 03:00:48;;;;;;;79.30;25.88;;;;;;;2.14;44.96;103023.72;4924408;28;97814;-71
2021/03/02 03:03:18;;;;;;;71.45;24.17;;;;;;;2.15;45.42;103030.81;4926789;28;97762;-71
2021/03/02 03:05:48;;;;;;;70.75;25.23;;;;;;;2.12;45.75;103022.66;4928685;28;99824;-72
2021/03/02 03:08:17;;;;;;;60.30;22.17;;;;;;;2.13;45.53;103027.13;4912435;28;99763;-72
2021/03/02 03:10:44;;;;;;;65.63;22.63;;;;;;;2.11;45.16;103029.63;4908930;28;97526;-72
2021/03/02 03:13:16;;;;;;;67.32;23.08;;;;;;;2.12;45.94;103036.72;4911839;28;96771;-71
2021/03/02 03:15:47;;;;;;;68.30;23.15;;;;;;;2.11;45.24;103029.63;4907496;28;101826;-72
2021/03/02 03:18:15;;;;;;;62.85;24.05;;;;;;;2.10;45.13;103032.13;4927916;28;97575;-71
2021/03/02 03:20:42;;;;;;;53.75;23.17;;;;;;;2.09;45.21;103039.06;4895981;28;97285;-71
2021/03/02 03:23:09;;;;;;;57.45;21.95;;;;;;;2.41;44.42;103034.09;4928924;28;97259;-71
2021/03/02 03:25:36;;;;;;;52.80;20.42;;;;;;;1.99;45.23;103038.97;4910042;28;99825;-71
2021/03/02 03:28:05;;;;;;;57.60;21.83;;;;;;;1.94;45.41;103040.28;4927310;28;97024;-71
2021/03/02 03:30:34;;;;;;;59.10;22.30;;;;;;;1.92;45.61;103033.97;4924917;28;96921;-71
2021/03/02 03:33:05;;;;;;;60.67;22.50;;;;;;;1.87;45.31;103032.59;4928933;28;96878;-71
2021/03/02 03:35:33;;;;;;;63.45;22.45;;;;;;;1.87;45.85;103040.47;4926286;28;98424;-71
2021/03/02 03:37:59;;;;;;;66.05;23.15;;;;;;;1.89;46.00;103035.38;4926982;28;98324;-72
2021/03/02 03:40:27;;;;;;;62.20;24.13;;;;;;;1.90;45.55;103043.41;4910653;28;97448;-71
2021/03/02 03:42:53;;;;;;;65.55;23.52;;;;;;;1.93;45.74;103042.72;4907577;28;96862;-69
2021/03/02 03:45:20;;;;;;;74.20;27.08;;;;;;;1.93;45.60;103041.03;4927863;28;98320;-71
2021/03/02 03:47:48;;;;;;;67.70;24.55;;;;;;;1.93;45.81;103038.41;4911609;28;98543;-70
2021/03/02 03:50:16;;;;;;;69.40;24.35;;;;;;;1.93;45.03;103038.41;4911029;28;97259;-70
2021/03/02 03:52:44;;;;;;;69.28;22.52;;;;;;;1.92;45.69;103041.84;4911416;28;97431;-70
2021/03/02 03:55:14;;;;;;;71.45;25.00;;;;;;;1.92;46.18;103041.84;4911263;28;97903;-70
2021/03/02 03:57:42;;;;;;;71.72;24.65;;;;;;;1.95;46.02;103039.47;4905932;28;99644;-70
2021/03/02 04:00:10;;;;;;;70.65;24.55;;;;;;;1.96;45.58;103040.41;4924339;28;96985;-70
2021/03/02 04:02:37;;;;;;;76.30;25.95;;;;;;;1.96;45.37;103036.06;4929608;28;96893;-70
2021/03/02 04:05:06;;;;;;;81.97;28.63;;;;;;;1.98;45.98;103039.75;4925731;28;97260;-70
2021/03/02 04:07:35;;;;;;;84.97;29.90;;;;;;;1.99;45.62;103038.97;4910884;28;100089;-70
2021/03/02 04:10:04;;;;;;;62.42;23.73;;;;;;;1.99;45.71;103043.31;4924146;28;97706;-71
2021/03/02 04:12:36;;;;;;;68.90;25.10;;;;;;;2.00;45.38;103030.31;4929097;28;96783;-71
2021/03/02 04:15:23;;;;;;;70.53;25.75;;;;;;;2.00;45.29;103035.56;4926064;28;99498;-71
2021/03/02 04:17:51;;;;;;;60.38;23.98;;;;;;;1.99;45.53;103045.94;4908331;28;99302;-71
2021/03/02 04:20:18;;;;;;;71.03;23.88;;;;;;;1.99;46.06;103035.44;4921704;28;97768;-71
2021/03/02 04:22:46;;;;;;;56.53;21.73;;;;;;;1.99;45.37;103036.34;4898398;28;96699;-72
2021/03/02 04:25:13;;;;;;;64.53;25.17;;;;;;;2.00;45.61;103039.88;4911578;28;100383;-71
2021/03/02 04:27:41;;;;;;;64.32;22.15;;;;;;;1.99;45.52;103038.97;4903552;28;99764;-71
2021/03/02 04:30:09;;;;;;;68.32;23.60;;;;;;;1.99;46.11;103038.97;4924243;28;96835;-70
2021/03/02 04:32:36;;;;;;;68.20;25.95;;;;;;;2.00;45.32;103040.81;4928204;28;96786;-70
2021/03/02 04:35:04;;;;;;;59.50;23.33;;;;;;;1.98;45.53;103039.75;4926586;28;98959;-70
2021/03/02 04:37:31;;;;;;;63.97;24.10;;;;;;;1.98;45.86;103036.22;4909765;28;100417;-71
2021/03/02 04:39:58;;;;;;;63.88;23.38;;;;;;;1.98;46.10;103042.38;4910312;28;97993;-71
2021/03/02 04:42:25;;;;;;;67.32;22.35;;;;;;;1.93;46.29;103038.41;4907839;28;97304;-71
2021/03/02 04:44:52;;;;;;;68.03;24.00;;;;;;;1.93;46.00;103037.47;4920358;28;97454;-72
2021/03/02 04:47:19;;;;;;;64.65;24.38;;;;;;;1.89;45.97;103041.53;4907624;28;100671;-72
2021/03/02 04:49:46;;;;;;;64.53;24.70;;;;;;;1.87;45.99;103043.09;4916177;28;96879;-72
2021/03/02 04:52:13;;;;;;;68.03;24.45;;;;;;;1.87;46.03;103037.84;4909525;28;96791;-72
2021/03/02 04:54:40;;;;;;;67.22;25.85;;;;;;;1.87;45.66;103037.84;4911838;28;100673;-72
2021/03/02 04:57:07;;;;;;;61.67;23.05;;;;;;;1.91;46.06;103036.41;4926451;28;98969;-72
2021/03/02 04:59:34;;;;;;;51.13;21.50;;;;;;;1.92;46.10;103038.28;4910556;28;96826;-72
2021/03/02 05:02:02;;;;;;;52.92;19.75;;;;;;;1.87;45.80;103031.69;4904002;28;97416;-73
2021/03/02 05:04:29;;;;;;;57.88;21.83;;;;;;;1.85;45.89;103035.88;4924981;28;98810;-71
2021/03/02 05:06:56;;;;;;;57.78;23.00;;;;;;;1.83;46.05;103030.50;4924408;28;97644;-71
2021/03/02 05:09:22;;;;;;;86.20;36.33;;;;;;;1.81;46.10;103032.06;4925729;28;97378;-71
2021/03/02 05:11:49;;;;;;;77.50;31.27;;;;;;;1.79;46.02;103028.38;4922160;28;97226;-71
2021/03/02 05:14:17;;;;;;;58.47;23.58;;;;;;;1.79;46.25;103027.44;4922212;28;100868;-71
2021/03/02 05:16:44;;;;;;;64.15;25.02;;;;;;;1.76;46.23;103037.66;4901193;28;100757;-71
2021/03/02 05:19:11;;;;;;;57.25;23.05;;;;;;;1.76;46.27;103037.66;4907139;28;96907;-71
2021/03/02 05:21:38;;;;;;;58.05;23.35;;;;;;;1.79;46.08;103031.00;4922423;28;96912;-71
2021/03/02 05:24:05;;;;;;;51.30;22.02;;;;;;;1.81;45.88;103042.56;4930733;28;96710;-72
2021/03/02 05:26:33;;;;;;;54.00;22.77;;;;;;;1.83;45.68;103032.19;4930687;28;98222;-71
2021/03/02 05:28:59;;;;;;;57.13;23.10;;;;;;;1.81;46.75;103031.13;4927929;28;97457;-71
2021/03/02 05:31:28;;;;;;;58.83;22.80;;;;;;;1.80;45.81;103035.44;4910302;28;96862;-72
2021/03/02 05:33:55;;;;;;;53.17;21.33;;;;;;;1.78;45.99;103034.38;4915711;28;98462;-73
2021/03/02 05:36:25;;;;;;;57.15;21.77;;;;;;;1.76;46.50;103030.69;4927810;28;98107;-72
2021/03/02 05:38:52;;;;;;;53.47;21.85;;;;;;;1.74;45.84;103033.97;4928939;28;97207;-72
2021/03/02 05:41:19;;;;;;;50.05;20.40;;;;;;;1.73;46.51;103037.34;4932464;28;97368;-72
2021/03/02 05:43:47;;;;;;;53.30;22.40;;;;;;;1.72;46.20;103031.22;4904883;28;99491;-72
2021/03/02 05:46:36;;;;;;;51.08;21.55;;;;;;;1.74;46.19;103034.91;4905595;28;97066;-72
2021/03/02 05:49:04;;;;;;;48.17;22.27;;;;;;;1.75;45.81;103036.72;4907237;28;97820;-70
2021/03/02 05:51:33;;;;;;;44.25;19.30;;;;;;;1.71;46.15;103034.59;4884507;28;98741;-72
2021/03/02 05:54:00;;;;;;;48.58;19.77;;;;;;;1.68;46.33;103028.13;4904923;28;100329;-71
2021/03/02 05:56:28;;;;;;;45.95;18.50;;;;;;;1.66;46.16;103025.38;4884595;28;99454;-72
2021/03/02 05:58:54;;;;;;;48.70;19.67;;;;;;;1.67;46.43;103028.94;4919383;28;98162;-71
2021/03/02 06:01:21;;;;;;;43.58;19.98;;;;;;;1.66;46.19;103025.38;4925696;28;97358;-71
2021/03/02 06:03:49;;;;;;;41.88;18.60;;;;;;;1.63;46.41;103025.09;4923228;28;99060;-71
2021/03/02 06:06:16;;;;;;;44.47;19.77;;;;;;;1.62;46.51;103019.69;4922653;28;98539;-71
2021/03/02 06:08:44;;;;;;;46.75;20.05;;;;;;;1.62;46.72;103024.94;4924736;28;96705;-71
2021/03/02 06:11:29;;;;;;;48.15;19.50;;;;;;;1.62;46.64;103024.94;4922404;28;97521;-72
2021/03/02 06:13:56;;;;;;;36.13;16.80;;;;;;;1.59;46.69;103029.91;4903873;28;98505;-72
2021/03/02 06:16:23;;;;;;;44.42;18.85;;;;;;;1.51;46.78;103031.81;4903547;28;99586;-71
2021/03/02 06:18:53;;;;;;;42.50;18.23;;;;;;;1.48;46.89;103031.53;4921280;28;97561;-70
2021/03/02 06:21:21;;;;;;;42.92;18.48;;;;;;;1.53;46.14;103037.22;4916574;28;98519;-72
2021/03/02 06:23:50;;;;;;;42.00;19.58;;;;;;;1.54;46.39;103040.00;4916012;28;100073;-71
2021/03/02 06:26:24;;;;;;;44.72;19.10;;;;;;;1.58;46.73;103035.97;4915897;28;97872;-71
2021/03/02 06:28:53;;;;;;;42.80;17.90;;;;;;;1.59;46.17;103035.16;4922347;28;98391;-71
2021/03/02 06:31:35;;;;;;;45.05;20.55;;;;;;;1.64;46.56;103037.44;4901274;28;96919;-72
2021/03/02 06:34:08;;;;;;;46.13;20.10;;;;;;;1.66;46.11;103041.13;4906064;28;101312;-72
2021/03/02 06:36:36;;;;;;;40.90;19.77;;;;;;;1.71;46.25;103041.53;4885061;28;99413;-71
2021/03/02 06:39:26;;;;;;;43.65;19.52;;;;;;;1.74;46.88;103042.78;4917297;28;96981;-72
2021/03/02 06:42:09;;;;;;;46.10;19.70;;;;;;;1.76;46.28;103043.81;4903147;28;99337;-71
2021/03/02 06:44:37;;;;;;;41.88;19.20;;;;;;;1.77;45.96;103053.53;4917452;28;100021;-71
2021/03/02 06:47:33;;;;;;;42.53;19.83;;;;;;;1.82;46.35;103059.19;4900981;28;98426;-71
2021/03/02 06:50:05;;;;;;;43.80;21.45;;;;;;;1.83;46.10;103056.75;4902973;28;97165;-72
2021/03/02 06:52:36;;;;;;;47.75;20.67;;;;;;;1.86;45.90;103053.47;4916721;28;96893;-71
2021/03/02 06:55:05;;;;;;;43.40;19.70;;;;;;;1.86;45.48;103049.13;4899145;28;98097;-72
2021/03/02 06:57:32;;;;;;;49.47;21.40;;;;;;;1.86;46.13;103049.13;4917644;28;97931;-71
2021/03/02 07:00:00;;;;;;;45.70;21.15;;;;;;;1.91;45.90;103042.59;4917662;28;99399;-71
2021/03/02 07:02:34;;;;;;;47.22;21.63;;;;;;;1.91;45.85;103045.22;4920498;28;97455;-72
2021/03/02 07:05:11;;;;;;;48.30;20.67;;;;;;;1.93;45.91;103043.66;4901346;28;99560;-72
2021/03/02 07:07:38;;;;;;;44.55;19.90;;;;;;;1.95;45.76;103042.09;4917957;28;97821;-71
2021/03/02 07:10:07;;;;;;;49.20;20.77;;;;;;;1.97;45.69;103039.63;4918629;28;97174;-71
2021/03/02 07:12:36;;;;;;;43.70;19.17;;;;;;;1.98;46.20;103047.63;4919385;28;97320;-72
2021/03/02 07:15:05;;;;;;;48.05;19.35;;;;;;;1.99;45.95;103049.50;4901130;28;100446;-72
2021/03/02 07:17:35;;;;;;;47.20;20.13;;;;;;;2.06;45.72;103050.94;4902487;28;100482;-72
2021/03/02 07:20:05;;;;;;;44.60;20.55;;;;;;;2.08;45.82;103054.66;4899804;28;97534;-71
2021/03/02 07:22:34;;;;;;;38.22;18.90;;;;;;;2.13;45.77;103049.06;4919152;28;97143;-72
2021/03/02 07:25:03;;;;;;;46.17;19.15;;;;;;;2.15;45.95;103057.09;4917528;28;100544;-72
2021/03/02 07:27:30;;;;;;;45.75;20.35;;;;;;;2.14;45.61;103056.16;4919180;28;97597;-71
2021/03/02 07:29:59;;;;;;;43.05;19.20;;;;;;;2.20;45.86;103056.72;4918841;28;96853;-72
2021/03/02 07:32:28;;;;;;;43.00;19.73;;;;;;;2.23;45.62;103055.16;4920725;28;97943;-72
2021/03/02 07:34:56;;;;;;;44.83;20.00;;;;;;;2.26;45.58;103060.66;4918074;28;99290;-71
2021/03/02 07:37:24;;;;;;;40.40;19.27;;;;;;;2.23;45.60;103057.78;4899635;28;98986;-71
2021/03/02 07:40:03;;;;;;;43.15;19.15;;;;;;;2.24;45.54;103057.00;4917308;28;99168;-72
2021/03/02 07:42:30;;;;;;;46.58;20.42;;;;;;;2.19;45.19;103060.13;4901065;28;97401;-72
2021/03/02 07:45:10;;;;;;;49.67;21.50;;;;;;;2.14;46.26;103056.16;4917935;28;99540;-72
2021/03/02 07:47:57;;;;;;;49.22;19.80;;;;;;;2.16;45.24;103064.19;4916186;28;99274;-72
2021/03/02 07:50:27;;;;;;;41.70;17.60;;;;;;;2.13;45.87;103064.81;4884902;28;99358;-72
2021/03/02 07:53:24;;;;;;;48.10;21.30;;;;;;;2.13;45.98;103064.81;4903918;28;97020;-71
2021/03/02 07:56:25;;;;;;;45.95;19.80;;;;;;;2.13;46.38;103054.31;4919773;28;97902;-72
2021/03/02 07:59:18;;;;;;;50.45;21.92;;;;;;;2.18;45.92;103062.63;4875043;28;97521;-73
2021/03/02 08:02:15;;;;;;;47.80;21.90;;;;;;;2.23;46.11;103060.41;4900652;28;98373;-73
2021/03/02 08:04:44;;;;;;;47.88;21.08;;;;;;;2.24;45.79;103063.16;4911551;28;97150;-73
2021/03/02 08:07:22;;;;;;;51.05;22.25;;;;;;;2.26;45.85;103061.59;4898635;28;99278;-72
2021/03/02 08:09:49;;;;;;;48.33;23.33;;;;;;;2.31;45.23;103068.19;4912982;28;98189;-72
2021/03/02 08:12:27;;;;;;;51.28;22.13;;;;;;;2.32;45.57;103064.78;4896259;28;97043;-72
2021/03/02 08:14:55;;;;;;;48.22;21.88;;;;;;;2.34;45.48;103070.19;4917214;28;97493;-71
2021/03/02 08:17:23;;;;;;;50.33;21.63;;;;;;;2.37;45.73;103070.44;4915988;28;100145;-72
2021/03/02 08:19:51;;;;;;;53.97;22.48;;;;;;;2.37;45.71;103059.94;4916168;28;97750;-72
2021/03/02 08:22:58;;;;;;;56.25;22.15;;;;;;;2.39;45.84;103064.56;4917886;28;97114;-72
2021/03/02 08:25:27;;;;;;;44.63;19.00;;;;;;;2.35;45.45;103057.19;4899520;28;97829;-72
2021/03/02 08:27:57;;;;;;;49.58;21.00;;;;;;;2.37;45.66;103067.81;4917894;28;98688;-72
2021/03/02 08:30:25;;;;;;;50.58;22.05;;;;;;;2.38;44.92;103070.63;4915974;28;98974;-71
2021/03/02 08:32:54;;;;;;;49.08;21.65;;;;;;;2.41;45.92;103069.94;4918622;28;96946;-72
2021/03/02 08:35:24;;;;;;;52.40;22.58;;;;;;;2.45;45.26;103067.75;4907338;28;97081;-72
2021/03/02 08:37:53;;;;;;;52.83;22.35;;;;;;;2.45;45.56;103064.19;4915724;28;98332;-72
2021/03/02 08:40:21;;;;;;;46.42;20.80;;;;;;;2.49;46.00;103063.69;4899220;28;98272;-72
2021/03/02 08:43:00;;;;;;;48.10;20.85;;;;;;;2.51;45.72;103068.28;4917480;28;97099;-72
2021/03/02 08:45:29;;;;;;;43.90;19.33;;;;;;;2.56;45.00;103066.09;4915683;28;97798;-71
2021/03/02 08:48:15;;;;;;;42.88;19.50;;;;;;;2.57;45.64;103065.28;4914874;28;96901;-71
2021/03/02 08:50:43;;;;;;;46.63;20.58;;;;;;;2.58;45.12;103069.78;4895711;28;97887;-72
2021/03/02 08:53:38;;;;;;;41.22;18.38;;;;;;;2.59;45.44;103067.28;4917312;28;96935;-72
2021/03/02 08:56:07;;;;;;;49.35;21.05;;;;;;;2.61;45.07;103072.66;4916339;28;96971;-71
2021/03/02 08:58:37;;;;;;;49.15;19.95;;;;;;;2.60;44.97;103076.09;4902129;28;100402;-73
2021/03/02 09:01:28;;;;;;;47.58;19.65;;;;;;;2.63;45.31;103072.03;4902176;28;99504;-73
2021/03/02 09:04:07;;;;;;;46.10;18.10;;;;;;;2.65;45.51;103072.16;4921221;28;97640;-73
2021/03/02 09:06:35;;;;;;;48.55;20.65;;;;;;;2.67;45.46;103083.75;4900924;28;97409;-70
2021/03/02 09:09:04;;;;;;;49.00;20.35;;;;;;;2.72;45.53;103082.44;4886588;28;99825;-71
2021/03/02 09:11:33;;;;;;;45.38;19.52;;;;;;;2.73;45.32;103084.28;4904794;28;100339;-71
2021/03/02 09:14:03;;;;;;;45.53;19.88;;;;;;;2.72;45.63;103079.81;4921100;28;97908;-71
2021/03/02 09:16:35;;;;;;;51.72;20.35;;;;;;;2.69;45.90;103090.06;4919282;28;97916;-72
2021/03/02 09:19:12;;;;;;;51.33;20.90;;;;;;;2.74;45.32;103080.88;4919752;28;97561;-71
2021/03/02 09:21:41;;;;;;;44.10;19.08;;;;;;;2.77;45.20;103075.88;4920226;28;97613;-71
2021/03/02 09:24:12;;;;;;;53.35;21.30;;;;;;;2.80;45.51;103081.41;4920318;28;97371;-72
2021/03/02 09:26:39;;;;;;;45.17;19.73;;;;;;;2.85;45.11;103080.13;4898788;28;97029;-71
2021/03/02 09:29:09;;;;;;;51.67;21.02;;;;;;;2.84;45.40;103073.00;4885937;28;99792;-72
2021/03/02 09:31:36;;;;;;;44.00;19.90;;;;;;;2.84;45.14;103078.25;4916572;28;99944;-72
2021/03/02 09:34:04;;;;;;;48.30;20.02;;;;;;;2.86;45.56;103076.69;4917029;28;97906;-72
2021/03/02 09:36:31;;;;;;;49.25;20.25;;;;;;;2.93;45.32;103079.09;4916788;28;97079;-71
2021/03/02 09:38:59;;;;;;;43.67;18.05;;;;;;;3.00;45.20;103078.84;4918431;28;97375;-71
2021/03/02 09:41:34;;;;;;;51.45;19.80;;;;;;;3.05;45.01;103072.28;4916858;28;99252;-71
2021/03/02 09:44:27;;;;;;;52.33;21.20;;;;;;;3.07;44.67;103079.53;4897156;28;97885;-72
2021/03/02 09:46:56;;;;;;;44.55;18.65;;;;;;;3.13;45.05;103084.41;4903499;28;97081;-71
2021/03/02 09:49:54;;;;;;;48.30;19.02;;;;;;;3.19;44.72;103082.28;4918177;28;99105;-71
2021/03/02 09:52:29;;;;;;;39.20;17.65;;;;;;;3.21;44.83;103085.97;4915864;28;99148;-71
2021/03/02 09:55:11;;;;;;;43.35;16.95;;;;;;;3.23;45.21;103081.75;4919221;28;97984;-72
2021/03/02 09:58:15;;;;;;;44.35;18.15;;;;;;;3.28;44.94;103083.06;4902983;28;99319;-71
2021/03/02 10:00:49;;;;;;;37.70;16.02;;;;;;;3.31;45.24;103083.38;4903431;28;100515;-72
2021/03/02 10:03:20;;;;;;;44.63;17.45;;;;;;;3.38;44.63;103083.09;4919100;28;98219;-72
2021/03/02 10:05:54;;;;;;;43.63;17.92;;;;;;;3.44;44.60;103083.63;4918434;28;99225;-70
2021/03/02 10:08:43;;;;;;;42.63;18.33;;;;;;;3.51;44.93;103080.75;4919847;28;98126;-70
2021/03/02 10:11:21;;;;;;;39.05;16.35;;;;;;;3.55;44.99;103081.94;4920040;28;99310;-70
2021/03/02 10:13:50;;;;;;;39.22;17.20;;;;;;;3.58;44.35;103077.84;4920665;28;98220;-70
2021/03/02 10:16:22;;;;;;;44.20;17.13;;;;;;;3.60;44.57;103075.34;4917441;28;98362;-69
2021/03/02 10:18:53;;;;;;;44.45;18.88;;;;;;;3.66;44.78;103087.34;4915313;28;96991;-69
2021/03/02 10:21:22;;;;;;;36.63;16.77;;;;;;;3.68;44.39;103069.03;4886636;28;100524;-70
2021/03/02 10:23:50;;;;;;;40.42;16.15;;;;;;;3.70;44.18;103063.13;4903147;28;99889;-70
2021/03/02 10:26:23;;;;;;;40.75;18.85;;;;;;;3.76;44.51;103068.91;4914239;28;97364;-70
2021/03/02 10:28:50;;;;;;;40.28;18.23;;;;;;;3.81;44.38;103072.84;4913560;28;96962;-70
2021/03/02 10:31:17;;;;;;;41.90;17.90;;;;;;;3.82;43.99;103061.53;4907168;28;97446;-71
2021/03/02 10:33:45;;;;;;;44.97;17.00;;;;;;;3.83;44.63;103070.34;4904936;28;100946;-71
2021/03/02 10:36:25;;;;;;;42.80;17.55;;;;;;;3.86;44.24;103070.63;4921298;28;97350;-70
2021/03/02 10:38:54;;;;;;;46.10;17.70;;;;;;;3.92;44.13;103068.47;4890684;28;97580;-72
2021/03/02 10:41:21;;;;;;;40.38;17.27;;;;;;;3.97;44.06;103072.44;4920560;28;97744;-71
2021/03/02 10:43:49;;;;;;;45.58;17.88;;;;;;;4.01;43.95;103067.53;4926979;28;97927;-71
2021/03/02 10:46:16;;;;;;;47.55;18.83;;;;;;;4.01;44.31;103072.81;4905397;28;97119;-71
2021/03/02 10:48:45;;;;;;;42.58;16.90;;;;;;;4.07;44.28;103067.13;4909555;28;97313;-72
2021/03/02 10:51:12;;;;;;;45.03;18.98;;;;;;;4.11;44.11;103064.91;4906196;28;98932;-71
2021/03/02 10:53:39;;;;;;;44.40;18.70;;;;;;;4.18;43.99;103063.69;4926749;28;97976;-69
2021/03/02 10:56:06;;;;;;;41.75;17.67;;;;;;;4.23;43.97;103058.00;4926620;28;96933;-70
2021/03/02 10:58:34;;;;;;;42.53;18.38;;;;;;;4.31;44.10;103065.63;4907350;28;97300;-70
2021/03/02 11:01:01;;;;;;;48.83;18.55;;;;;;;4.32;43.77;103056.94;4909226;28;99358;-70
2021/03/02 11:03:29;;;;;;;50.10;18.30;;;;;;;4.35;43.72;103065.09;4926092;28;97591;-71
2021/03/02 11:05:56;;;;;;;45.22;18.33;;;;;;;4.38;44.03;103060.06;4905808;28;97279;-71
2021/03/02 11:08:23;;;;;;;45.53;18.92;;;;;;;4.43;43.84;103058.72;4909495;28;97483;-71
2021/03/02 11:10:50;;;;;;;41.83;16.95;;;;;;;4.47;43.85;103056.47;4925427;28;97409;-70
2021/03/02 11:13:18;;;;;;;42.42;17.80;;;;;;;4.53;43.77;103050.78;4890277;28;101497;-71
2021/03/02 11:15:45;;;;;;;43.28;17.15;;;;;;;4.57;43.68;103048.50;4908267;28;97870;-71
2021/03/02 11:18:12;;;;;;;41.85;18.30;;;;;;;4.64;43.52;103040.31;4918054;28;96926;-71
2021/03/02 11:20:43;;;;;;;43.35;16.90;;;;;;;4.70;43.58;103047.78;4924330;28;97233;-71
2021/03/02 11:23:12;;;;;;;39.95;17.27;;;;;;;4.75;43.55;103038.53;4925517;28;98666;-70
2021/03/02 11:25:39;;;;;;;45.50;18.65;;;;;;;4.81;43.49;103034.66;4921556;28;97571;-70
2021/03/02 11:28:07;;;;;;;43.15;16.67;;;;;;;4.85;43.36;103031.47;4924997;28;96898;-71
2021/03/02 11:30:34;;;;;;;43.47;18.73;;;;;;;4.94;43.46;103037.47;4924306;28;100164;-72
2021/03/02 11:33:02;;;;;;;41.20;17.65;;;;;;;5.01;43.18;103029.25;4910519;28;97469;-71